createdAt,value
2022-10-29T00:00:49.183Z,101302.81
2022-10-29T00:03:36.155Z,101305.38
2022-10-29T00:06:08.835Z,101299.59
2022-10-29T00:08:37.360Z,101299.59
2022-10-29T00:11:15.006Z,101300.28
2022-10-29T00:13:42.418Z,101293.47
2022-10-29T00:16:17.525Z,101297.56
2022-10-29T00:18:44.289Z,101292.09
2022-10-29T00:21:13.634Z,101301.84
2022-10-29T00:23:39.806Z,101300.47
2022-10-29T00:26:06.366Z,101297.56
2022-10-29T00:28:33.201Z,101298.59
2022-10-29T00:31:08.183Z,101301.31
2022-10-29T00:33:34.483Z,101299.59
2022-10-29T00:36:06.361Z,101295.00
2022-10-29T00:38:34.428Z,101294.16
2022-10-29T00:41:01.869Z,101289.22
2022-10-29T00:43:28.501Z,101290.41
2022-10-29T00:46:06.673Z,101285.63
2022-10-29T00:48:40.230Z,101282.72
2022-10-29T00:51:10.943Z,101280.69
2022-10-29T00:53:42.102Z,101280.69
2022-10-29T00:56:08.750Z,101280.53
2022-10-29T00:58:35.002Z,101279.50
2022-10-29T01:01:01.875Z,101287.88
2022-10-29T01:03:28.319Z,101286.84
2022-10-29T01:05:54.770Z,101281.06
2022-10-29T01:08:21.416Z,101277.31
2022-10-29T01:11:16.978Z,101285.16
2022-10-29T01:14:15.278Z,101284.66
2022-10-29T01:17:04.190Z,101291.84
2022-10-29T01:19:47.196Z,101298.84
2022-10-29T01:22:42.254Z,101304.31
2022-10-29T01:25:21.566Z,101303.66
2022-10-29T01:27:55.107Z,101307.75
2022-10-29T01:30:55.604Z,101301.28
2022-10-29T01:33:40.528Z,101297.38
2022-10-29T01:36:36.770Z,101282.34
2022-10-29T01:39:02.999Z,101288.16
2022-10-29T01:41:48.780Z,101292.09
2022-10-29T01:44:18.054Z,101284.91
2022-10-29T01:46:51.587Z,101286.97
2022-10-29T01:49:23.918Z,101278.59
2022-10-29T01:51:51.794Z,101273.97
2022-10-29T01:54:18.144Z,101266.47
2022-10-29T01:56:53.400Z,101268.19
2022-10-29T01:59:35.236Z,101266.81
2022-10-29T02:02:55.988Z,101275.34
2022-10-29T02:05:50.953Z,101268.19
2022-10-29T02:08:46.194Z,101263.56
2022-10-29T02:11:26.251Z,101266.97
2022-10-29T02:13:58.405Z,101274.31
2022-10-29T02:16:27.190Z,101265.28
2022-10-29T02:18:53.437Z,101261.69
2022-10-29T02:21:20.035Z,101259.81
2022-10-29T02:23:47.076Z,101265.63
2022-10-29T02:26:13.871Z,101287.13
2022-10-29T02:28:40.198Z,101276.19
2022-10-29T02:31:06.315Z,101273.13
2022-10-29T02:33:32.435Z,101278.59
2022-10-29T02:35:58.976Z,101290.19
2022-10-29T02:38:25.068Z,101287.81
2022-10-29T02:40:51.172Z,101277.75
2022-10-29T02:45:50.069Z,101275.84
2022-10-29T02:48:16.197Z,101265.28
2022-10-29T02:50:42.446Z,101267.50
2022-10-29T02:53:08.827Z,101272.09
2022-10-29T02:55:34.909Z,101266.28
2022-10-29T02:58:01.262Z,101270.41
2022-10-29T03:00:27.400Z,101267.16
2022-10-29T03:02:53.878Z,101283.38
2022-10-29T03:05:20.511Z,101291.75
2022-10-29T03:07:46.627Z,101283.38
2022-10-29T03:10:12.690Z,101290.88
2022-10-29T03:12:39.058Z,101276.19
2022-10-29T03:15:05.635Z,101284.06
2022-10-29T03:17:31.812Z,101280.13
2022-10-29T03:19:58.160Z,101289.19
2022-10-29T03:22:24.457Z,101300.78
2022-10-29T03:24:50.553Z,101302.00
2022-10-29T03:27:16.847Z,101306.59
2022-10-29T03:29:43.449Z,101310.34
2022-10-29T03:32:09.731Z,101302.84
2022-10-29T03:34:36.041Z,101313.94
2022-10-29T03:37:02.412Z,101311.03
2022-10-29T03:39:28.495Z,101311.03
2022-10-29T03:41:54.869Z,101307.28
2022-10-29T03:44:20.977Z,101309.31
2022-10-29T03:46:47.059Z,101300.63
2022-10-29T03:49:13.422Z,101309.31
2022-10-29T03:51:39.543Z,101313.41
2022-10-29T03:54:06.080Z,101315.97
2022-10-29T03:56:32.235Z,101312.91
2022-10-29T03:58:58.624Z,101321.78
2022-10-29T04:01:24.998Z,101326.41
2022-10-29T04:03:51.377Z,101324.00
2022-10-29T04:06:17.703Z,101324.84
2022-10-29T04:08:45.028Z,101326.72
2022-10-29T04:11:12.683Z,101335.94
2022-10-29T04:13:39.450Z,101334.94
2022-10-29T04:16:05.770Z,101329.47
2022-10-29T04:18:32.124Z,101341.59
2022-10-29T04:28:17.473Z,101355.06
2022-10-29T04:29:21.735Z,101358.47
2022-10-29T04:31:48.557Z,101354.03
2022-10-29T04:34:15.237Z,101352.16
2022-10-29T04:36:41.647Z,101353.19
2022-10-29T04:39:08.007Z,101352.69
2022-10-29T04:41:34.401Z,101357.97
2022-10-29T04:44:01.573Z,101349.09
2022-10-29T04:46:28.119Z,101355.59
2022-10-29T04:48:54.448Z,101347.88
2022-10-29T04:51:24.214Z,101357.44
2022-10-29T04:53:50.663Z,101356.38
2022-10-29T04:56:17.685Z,101361.50
2022-10-29T04:58:44.351Z,101369.03
2022-10-29T05:01:11.174Z,101358.44
2022-10-29T05:03:37.749Z,101363.72
2022-10-29T05:06:05.515Z,101372.09
2022-10-29T05:08:32.365Z,101364.22
2022-10-29T05:11:02.618Z,101370.53
2022-10-29T05:13:29.003Z,101360.31
2022-10-29T05:15:55.649Z,101368.50
2022-10-29T05:18:22.116Z,101372.78
2022-10-29T05:20:52.257Z,101367.31
2022-10-29T05:23:18.550Z,101375.84
2022-10-29T05:25:48.372Z,101379.78
2022-10-29T05:28:20.376Z,101373.28
2022-10-29T05:30:48.670Z,101369.69
2022-10-29T05:33:19.600Z,101372.59
2022-10-29T05:35:46.171Z,101374.63
2022-10-29T05:38:13.601Z,101372.06
2022-10-29T05:40:41.851Z,101374.09
2022-10-29T05:43:08.035Z,101374.09
2022-10-29T05:45:34.375Z,101381.44
2022-10-29T05:48:03.263Z,101384.69
2022-10-29T05:50:31.449Z,101390.16
2022-10-29T05:53:00.180Z,101397.31
2022-10-29T05:55:28.326Z,101400.25
2022-10-29T05:57:58.692Z,101393.94
2022-10-29T06:00:27.699Z,101396.00
2022-10-29T06:02:55.469Z,101401.13
2022-10-29T06:05:22.923Z,101398.75
2022-10-29T06:07:58.049Z,101401.84
2022-10-29T06:10:27.580Z,101400.31
2022-10-29T06:12:54.269Z,101388.88
2022-10-29T06:15:21.183Z,101393.31
2022-10-29T06:17:48.141Z,101393.34
2022-10-29T06:20:16.381Z,101391.31
2022-10-29T06:22:42.773Z,101390.63
2022-10-29T06:25:09.490Z,101385.69
2022-10-29T06:27:36.570Z,101396.09
2022-10-29T06:30:04.361Z,101397.97
2022-10-29T06:32:30.831Z,101397.47
2022-10-29T06:34:57.355Z,101398.66
2022-10-29T06:37:23.551Z,101394.41
2022-10-29T06:39:50.401Z,101399.19
2022-10-29T06:42:16.754Z,101406.53
2022-10-29T06:44:43.171Z,101406.53
2022-10-29T06:47:09.509Z,101404.66
2022-10-29T06:49:36.041Z,101395.94
2022-10-29T06:52:02.337Z,101397.81
2022-10-29T06:54:29.120Z,101388.25
2022-10-29T06:56:55.890Z,101386.72
2022-10-29T06:59:23.770Z,101396.13
2022-10-29T07:01:50.127Z,101397.13
2022-10-29T07:04:17.837Z,101407.91
2022-10-29T07:06:44.831Z,101409.44
2022-10-29T07:09:11.192Z,101408.94
2022-10-29T07:11:37.860Z,101421.91
2022-10-29T07:14:09.123Z,101424.66
2022-10-29T07:16:36.510Z,101424.81
2022-10-29T07:19:04.487Z,101435.22
2022-10-29T07:21:30.929Z,101448.22
2022-10-29T07:23:57.667Z,101445.66
2022-10-29T07:26:24.100Z,101437.25
2022-10-29T07:28:53.771Z,101425.97
2022-10-29T07:31:20.438Z,101429.38
2022-10-29T07:33:47.239Z,101430.41
2022-10-29T07:36:13.601Z,101436.56
2022-10-29T07:38:40.168Z,101443.94
2022-10-29T07:41:06.885Z,101463.44
2022-10-29T07:43:35.907Z,101452.00
2022-10-29T07:46:02.258Z,101446.00
2022-10-29T07:48:28.818Z,101454.72
2022-10-29T07:50:58.548Z,101454.91
2022-10-29T07:53:25.532Z,101448.06
2022-10-29T07:55:55.292Z,101445.13
2022-10-29T07:58:23.110Z,101457.28
2022-10-29T08:00:49.872Z,101454.34
2022-10-29T08:03:16.306Z,101457.09
2022-10-29T08:05:43.234Z,101439.44
2022-10-29T08:08:09.795Z,101445.41
2022-10-29T08:10:36.393Z,101453.09
2022-10-29T08:13:05.811Z,101451.69
2022-10-29T08:15:34.201Z,101460.41
2022-10-29T08:18:01.087Z,101466.03
2022-10-29T08:20:28.819Z,101459.53
2022-10-29T08:22:58.927Z,101452.81
2022-10-29T08:25:26.600Z,101456.91
2022-10-29T08:28:00.747Z,101465.28
2022-10-29T08:30:28.320Z,101472.78
2022-10-29T08:32:54.926Z,101467.69
2022-10-29T08:35:22.109Z,101457.81
2022-10-29T08:37:48.867Z,101458.81
2022-10-29T08:40:30.311Z,101454.13
2022-10-29T08:43:32.155Z,101460.25
2022-10-29T08:45:58.982Z,101463.25
2022-10-29T08:48:45.814Z,101454.09
2022-10-29T08:51:12.840Z,101467.09
2022-10-29T08:53:45.382Z,101472.03
2022-10-29T08:56:35.901Z,101475.94
2022-10-29T08:59:08.502Z,101470.94
2022-10-29T09:01:35.377Z,101470.38
2022-10-29T09:04:03.233Z,101470.88
2022-10-29T09:06:48.528Z,101471.31
2022-10-29T09:09:18.146Z,101475.47
2022-10-29T09:11:57.185Z,101482.00
2022-10-29T09:14:45.920Z,101477.78
2022-10-29T09:17:40.028Z,101483.75
2022-10-29T09:20:31.361Z,101496.13
2022-10-29T09:23:17.075Z,101479.00
2022-10-29T09:25:49.576Z,101480.81
2022-10-29T09:28:29.198Z,101483.56
2022-10-29T09:31:21.457Z,101490.31
2022-10-29T09:33:51.684Z,101490.69
2022-10-29T09:36:21.598Z,101489.09
2022-10-29T09:42:38.007Z,101500.47
2022-10-29T09:45:10.600Z,101499.81
2022-10-29T09:48:24.592Z,101491.56
2022-10-29T09:51:09.282Z,101494.78
2022-10-29T09:53:36.190Z,101495.97
2022-10-29T09:56:07.034Z,101488.94
2022-10-29T09:58:38.840Z,101487.91
2022-10-29T10:01:05.529Z,101488.09
2022-10-29T10:03:44.880Z,101491.13
2022-10-29T10:06:14.814Z,101497.66
2022-10-29T10:09:02.338Z,101490.56
2022-10-29T10:11:38.394Z,101502.78
2022-10-29T10:14:30.581Z,101503.75
2022-10-29T10:16:58.440Z,101498.38
2022-10-29T10:19:27.772Z,101500.44
2022-10-29T10:22:04.341Z,101492.38
2022-10-29T10:24:35.870Z,101488.69
2022-10-29T10:27:25.443Z,101482.63
2022-10-29T10:30:11.763Z,101492.00
2022-10-29T10:32:38.358Z,101486.50
2022-10-29T10:35:24.481Z,101483.09
2022-10-29T10:37:50.872Z,101482.22
2022-10-29T10:40:24.252Z,101487.72
2022-10-29T10:42:55.058Z,101482.50
2022-10-29T10:45:32.826Z,101492.56
2022-10-29T10:48:00.411Z,101478.81
2022-10-29T10:50:30.608Z,101476.84
2022-10-29T10:52:58.997Z,101472.84
2022-10-29T10:55:34.549Z,101464.03
2022-10-29T10:58:09.152Z,101460.69
2022-10-29T11:00:40.525Z,101465.16
2022-10-29T11:03:19.820Z,101473.03
2022-10-29T11:05:51.308Z,101480.16
2022-10-29T11:08:30.136Z,101479.38
2022-10-29T11:11:04.378Z,101485.34
2022-10-29T11:13:32.960Z,101478.78
2022-10-29T11:16:27.374Z,101460.84
2022-10-29T11:19:07.757Z,101455.75
2022-10-29T11:21:43.296Z,101458.38
2022-10-29T11:24:44.203Z,101454.69
2022-10-29T11:27:23.044Z,101469.75
2022-10-29T11:30:09.060Z,101464.91
2022-10-29T11:32:43.137Z,101464.66
2022-10-29T11:35:18.137Z,101464.66
2022-10-29T11:37:50.307Z,101471.84
2022-10-29T11:40:22.993Z,101474.56
2022-10-29T11:42:49.859Z,101473.72
2022-10-29T11:45:53.708Z,101469.38
2022-10-29T11:51:24.472Z,101455.13
2022-10-29T11:54:01.953Z,101449.16
2022-10-29T11:57:03.985Z,101446.22
2022-10-29T11:59:57.805Z,101459.44
2022-10-29T12:02:48.582Z,101453.78
2022-10-29T12:05:30.581Z,101457.31
2022-10-29T12:08:06.613Z,101457.81
2022-10-29T12:11:02.695Z,101452.38
2022-10-29T12:13:55.807Z,101453.28
2022-10-29T12:16:28.211Z,101439.41
2022-10-29T12:19:02.437Z,101445.81
2022-10-29T12:21:38.051Z,101444.38
2022-10-29T12:24:45.629Z,101434.34
2022-10-29T12:27:24.976Z,101433.09
2022-10-29T12:30:02.406Z,101416.13
2022-10-29T12:32:41.012Z,101423.84
2022-10-29T12:35:16.040Z,101426.06
2022-10-29T12:38:19.018Z,101423.25
2022-10-29T12:40:51.632Z,101425.66
2022-10-29T12:43:30.767Z,101421.28
2022-10-29T12:46:24.776Z,101421.94
2022-10-29T12:48:57.182Z,101431.63
2022-10-29T12:51:32.566Z,101431.16
2022-10-29T12:54:19.527Z,101431.06
2022-10-29T12:56:49.381Z,101426.84
2022-10-29T12:59:36.512Z,101419.19
2022-10-29T13:02:26.002Z,101421.28
2022-10-29T13:05:10.986Z,101415.78
2022-10-29T13:07:46.597Z,101422.47
2022-10-29T13:10:22.088Z,101422.50
2022-10-29T13:12:57.556Z,101417.88
2022-10-29T13:15:30.160Z,101417.19
2022-10-29T13:18:07.253Z,101417.00
2022-10-29T13:20:40.320Z,101407.44
2022-10-29T13:23:21.953Z,101412.59
2022-10-29T13:25:50.444Z,101414.16
2022-10-29T13:28:17.014Z,101414.75
2022-10-29T13:30:51.930Z,101415.81
2022-10-29T13:33:21.522Z,101418.16
2022-10-29T13:35:55.165Z,101417.50
2022-10-29T13:38:46.997Z,101408.22
2022-10-29T13:41:25.047Z,101410.97
2022-10-29T13:43:56.872Z,101416.88
2022-10-29T13:46:46.915Z,101405.66
2022-10-29T13:49:31.923Z,101414.09
2022-10-29T13:52:25.437Z,101414.31
2022-10-29T13:55:00.576Z,101401.59
2022-10-29T13:57:36.232Z,101392.69
2022-10-29T14:00:14.991Z,101393.94
2022-10-29T14:03:03.751Z,101391.56
2022-10-29T14:05:34.528Z,101390.94
2022-10-29T14:08:11.027Z,101397.28
2022-10-29T14:10:40.295Z,101394.88
2022-10-29T14:13:22.008Z,101398.88
2022-10-29T14:16:28.299Z,101394.84
2022-10-29T14:18:55.015Z,101389.91
2022-10-29T14:21:30.052Z,101395.16
2022-10-29T14:24:00.460Z,101387.50
2022-10-29T14:26:29.957Z,101382.78
2022-10-29T14:28:56.333Z,101379.13
2022-10-29T14:31:24.353Z,101377.00
2022-10-29T14:33:57.694Z,101379.78
2022-10-29T14:36:35.525Z,101378.06
2022-10-29T14:39:23.815Z,101388.59
2022-10-29T14:41:54.106Z,101385.19
2022-10-29T14:44:27.166Z,101387.88
2022-10-29T14:47:07.808Z,101393.78
2022-10-29T14:49:39.648Z,101399.47
2022-10-29T14:52:15.627Z,101397.09
2022-10-29T14:54:47.776Z,101399.97
2022-10-29T14:57:17.250Z,101394.44
2022-10-29T14:59:53.578Z,101389.69
2022-10-29T15:02:37.580Z,101405.72
2022-10-29T15:05:19.726Z,101397.22
2022-10-29T15:07:46.108Z,101397.94
2022-10-29T15:10:20.208Z,101406.97
2022-10-29T15:12:48.115Z,101403.75
2022-10-29T15:15:17.225Z,101400.72
2022-10-29T15:17:52.189Z,101394.94
2022-10-29T15:20:41.349Z,101395.13
2022-10-29T15:23:22.983Z,101401.66
2022-10-29T15:25:51.724Z,101405.84
2022-10-29T15:28:29.837Z,101403.38
2022-10-29T15:31:00.134Z,101392.97
2022-10-29T15:33:28.985Z,101400.06
2022-10-29T15:35:58.971Z,101409.91
2022-10-29T15:38:34.919Z,101417.47
2022-10-29T15:41:34.726Z,101412.56
2022-10-29T15:44:01.245Z,101409.88
2022-10-29T15:46:34.352Z,101414.22
2022-10-29T15:49:00.936Z,101406.47
2022-10-29T15:51:28.682Z,101412.53
2022-10-29T15:53:56.705Z,101404.34
2022-10-29T15:56:24.029Z,101401.31
2022-10-29T15:58:51.766Z,101401.38
2022-10-29T16:01:18.055Z,101394.91
2022-10-29T16:03:44.512Z,101390.53
2022-10-29T16:06:15.511Z,101393.47
2022-10-29T16:08:56.987Z,101390.41
2022-10-29T16:11:23.644Z,101393.72
2022-10-29T16:13:54.545Z,101393.94
2022-10-29T16:16:22.888Z,101386.81
2022-10-29T16:18:49.529Z,101387.06
2022-10-29T16:21:19.999Z,101386.25
2022-10-29T16:23:47.182Z,101376.69
2022-10-29T16:26:16.476Z,101374.66
2022-10-29T16:28:43.315Z,101378.50
2022-10-29T16:31:19.694Z,101384.00
2022-10-29T16:33:50.736Z,101384.91
2022-10-29T16:36:17.204Z,101386.28
2022-10-29T16:38:46.585Z,101374.69
2022-10-29T16:41:14.721Z,101385.16
2022-10-29T16:43:42.457Z,101384.66
2022-10-29T16:46:09.728Z,101388.78
2022-10-29T16:48:36.109Z,101399.41
2022-10-29T16:51:04.084Z,101393.25
2022-10-29T16:53:30.336Z,101395.81
2022-10-29T16:55:56.559Z,101398.38
2022-10-29T16:58:23.742Z,101398.56
2022-10-29T17:00:50.067Z,101393.97
2022-10-29T17:03:17.485Z,101400.63
2022-10-29T17:05:45.578Z,101396.72
2022-10-29T17:08:12.448Z,101392.25
2022-10-29T17:10:39.911Z,101398.41
2022-10-29T17:13:08.273Z,101396.88
2022-10-29T17:15:34.571Z,101399.09
2022-10-29T17:18:01.601Z,101405.25
2022-10-29T17:20:30.674Z,101406.09
2022-10-29T17:22:57.291Z,101415.53
2022-10-29T17:25:23.557Z,101412.63
2022-10-29T17:27:49.709Z,101411.06
2022-10-29T17:30:16.281Z,101403.19
2022-10-29T17:32:42.551Z,101385.25
2022-10-29T17:35:09.127Z,101382.00
2022-10-29T17:37:35.889Z,101385.78
2022-10-29T17:40:06.824Z,101393.31
2022-10-29T17:42:34.698Z,101391.75
2022-10-29T17:45:01.406Z,101392.28
2022-10-29T17:47:29.305Z,101395.88
2022-10-29T17:49:56.189Z,101394.00
2022-10-29T17:52:22.716Z,101397.44
2022-10-29T17:54:49.011Z,101404.97
2022-10-29T17:57:15.355Z,101404.81
2022-10-29T17:59:41.962Z,101417.97
2022-10-29T18:02:10.526Z,101418.81
2022-10-29T18:04:37.331Z,101408.22
2022-10-29T18:07:03.467Z,101420.38
2022-10-29T18:09:30.068Z,101408.06
2022-10-29T18:11:56.345Z,101422.44
2022-10-29T18:14:22.699Z,101416.09
2022-10-29T18:16:49.795Z,101413.88
2022-10-29T18:19:16.663Z,101407.03
2022-10-29T18:21:43.327Z,101408.59
2022-10-29T18:24:10.584Z,101413.38
2022-10-29T18:26:37.489Z,101412.19
2022-10-29T18:29:09.996Z,101414.06
2022-10-29T18:31:39.382Z,101413.72
2022-10-29T18:34:06.894Z,101412.88
2022-10-29T18:36:35.045Z,101414.56
2022-10-29T18:39:01.754Z,101415.59
2022-10-29T18:41:28.862Z,101415.59
2022-10-29T18:43:56.495Z,101413.19
2022-10-29T18:46:22.978Z,101409.28
2022-10-29T18:48:50.325Z,101409.09
2022-10-29T18:51:19.498Z,101402.59
2022-10-29T18:53:46.232Z,101398.84
2022-10-29T18:56:15.121Z,101398.00
2022-10-29T18:58:42.312Z,101401.75
2022-10-29T19:01:12.567Z,101395.09
2022-10-29T19:03:39.595Z,101396.13
2022-10-29T19:06:08.807Z,101389.97
2022-10-29T19:08:37.179Z,101385.84
2022-10-29T19:11:06.160Z,101390.31
2022-10-29T19:13:33.436Z,101386.88
2022-10-29T19:16:05.353Z,101373.91
2022-10-29T19:18:33.240Z,101376.97
2022-10-29T19:21:08.825Z,101385.53
2022-10-29T19:23:35.621Z,101384.16
2022-10-29T19:26:10.762Z,101380.22
2022-10-29T19:28:40.938Z,101382.78
2022-10-29T19:31:13.839Z,101397.66
2022-10-29T19:33:40.665Z,101395.44
2022-10-29T19:36:08.838Z,101395.59
2022-10-29T19:38:35.666Z,101400.56
2022-10-29T19:41:02.492Z,101403.97
2022-10-29T19:43:29.601Z,101400.03
2022-10-29T19:45:56.344Z,101403.63
2022-10-29T19:48:23.440Z,101390.47
2022-10-29T19:50:55.421Z,101396.28
2022-10-29T19:53:24.220Z,101390.13
2022-10-29T19:55:54.148Z,101386.19
2022-10-29T19:58:22.768Z,101384.16
2022-10-29T20:00:49.721Z,101395.78
2022-10-29T20:03:16.962Z,101399.69
2022-10-29T20:05:45.021Z,101400.56
2022-10-29T20:08:15.846Z,101391.69
2022-10-29T20:10:43.578Z,101390.47
2022-10-29T20:13:10.094Z,101402.09
2022-10-29T20:15:38.576Z,101391.34
2022-10-29T20:18:05.425Z,101401.59
2022-10-29T20:20:32.217Z,101396.13
2022-10-29T20:22:59.051Z,101391.50
2022-10-29T20:25:25.673Z,101388.25
2022-10-29T20:27:52.087Z,101399.53
2022-10-29T20:30:18.568Z,101399.88
2022-10-29T20:32:45.001Z,101401.75
2022-10-29T20:35:45.368Z,101394.41
2022-10-29T20:38:22.471Z,101395.25
2022-10-29T20:40:50.263Z,101396.47
2022-10-29T20:43:16.478Z,101385.00
2022-10-29T20:45:42.788Z,101396.13
2022-10-29T20:48:09.344Z,101392.69
2022-10-29T20:50:35.551Z,101388.44
2022-10-29T20:53:05.242Z,101390.47
2022-10-29T20:55:33.145Z,101391.69
2022-10-29T20:57:59.856Z,101398.16
2022-10-29T21:00:26.570Z,101395.25
2022-10-29T21:02:52.772Z,101399.88
2022-10-29T21:05:19.250Z,101396.47
2022-10-29T21:07:45.757Z,101393.91
2022-10-29T21:10:12.218Z,101393.38
2022-10-29T21:12:38.623Z,101405.50
2022-10-29T21:15:05.452Z,101393.72
2022-10-29T21:17:32.935Z,101389.28
2022-10-29T21:19:59.598Z,101380.56
2022-10-29T21:22:26.016Z,101368.94
2022-10-29T21:24:52.192Z,101372.88
2022-10-29T21:27:18.502Z,101373.22
2022-10-29T21:29:44.629Z,101369.13
2022-10-29T21:32:12.973Z,101358.88
2022-10-29T21:34:43.380Z,101361.25
2022-10-29T21:37:09.940Z,101360.22
2022-10-29T21:39:36.284Z,101351.69
2022-10-29T21:42:02.823Z,101343.66
2022-10-29T21:44:29.078Z,101351.00
2022-10-29T21:46:55.611Z,101348.44
2022-10-29T21:49:22.092Z,101351.69
2022-10-29T21:51:49.262Z,101350.97
2022-10-29T21:54:15.949Z,101352.00
2022-10-29T21:56:42.088Z,101348.25
2022-10-29T21:59:08.267Z,101348.75
2022-10-29T22:01:34.743Z,101349.44
2022-10-29T22:04:01.030Z,101354.06
2022-10-29T22:06:27.747Z,101344.16
2022-10-29T22:08:58.710Z,101356.28
2022-10-29T22:11:26.434Z,101369.75
2022-10-29T22:13:53.884Z,101351.16
2022-10-29T22:16:21.424Z,101353.72
2022-10-29T22:18:49.168Z,101353.38
2022-10-29T22:21:20.738Z,101356.28
2022-10-29T22:23:49.799Z,101369.75
2022-10-29T22:26:17.947Z,101371.47
2022-10-29T22:28:46.357Z,101372.84
2022-10-29T22:31:14.007Z,101364.31
2022-10-29T22:33:43.969Z,101370.44
2022-10-29T22:36:16.349Z,101380.84
2022-10-29T22:38:43.436Z,101375.56
2022-10-29T22:41:12.269Z,101374.38
2022-10-29T22:43:38.497Z,101366.16
2022-10-29T22:46:06.363Z,101366.16
2022-10-29T22:48:32.922Z,101362.75
2022-10-29T22:51:01.354Z,101357.78
2022-10-29T22:53:28.079Z,101355.91
2022-10-29T22:55:54.472Z,101351.31
2022-10-29T22:58:21.167Z,101347.41
2022-10-29T23:00:47.675Z,101351.66
2022-10-29T23:03:13.884Z,101353.00
2022-10-29T23:05:40.108Z,101355.41
2022-10-29T23:08:06.420Z,101358.16
2022-10-29T23:10:32.595Z,101342.41
2022-10-29T23:12:58.663Z,101342.75
2022-10-29T23:15:24.999Z,101341.88
2022-10-29T23:17:54.444Z,101345.81
2022-10-29T23:20:20.740Z,101354.34
2022-10-29T23:22:48.050Z,101344.94
2022-10-29T23:25:14.257Z,101353.31
2022-10-29T23:27:40.333Z,101350.38
2022-10-29T23:30:07.221Z,101356.00
2022-10-29T23:32:33.447Z,101358.38
2022-10-29T23:35:00.259Z,101350.88
2022-10-29T23:37:27.550Z,101343.75
2022-10-29T23:39:53.706Z,101349.72
2022-10-29T23:42:19.864Z,101348.00
2022-10-29T23:44:46.198Z,101340.16
2022-10-29T23:47:12.297Z,101358.44
2022-10-29T23:49:38.408Z,101353.47
2022-10-29T23:52:04.710Z,101356.03
2022-10-29T23:54:31.006Z,101353.31
2022-10-29T23:56:57.220Z,101343.56
2022-10-29T23:59:23.520Z,101353.31
